createdAt,value
2017-12-02T00:00:59.915Z,52.43
2017-12-02T00:03:26.376Z,51.33
2017-12-02T00:05:52.650Z,64.37
2017-12-02T00:08:18.897Z,54.83
2017-12-02T00:10:45.274Z,54.80
2017-12-02T00:13:12.252Z,57.10
2017-12-02T00:15:38.521Z,52.20
2017-12-02T00:18:04.799Z,60.87
2017-12-02T00:20:31.158Z,54.97
2017-12-02T00:22:57.488Z,58.10
2017-12-02T00:25:23.732Z,54.27
2017-12-02T00:27:50.027Z,54.20
2017-12-02T00:30:16.346Z,52.93
2017-12-02T00:32:43.380Z,52.00
2017-12-02T00:35:09.700Z,50.03
2017-12-02T00:37:35.963Z,56.80
2017-12-02T00:40:02.356Z,47.43
2017-12-02T00:42:28.700Z,56.40
2017-12-02T00:44:55.009Z,48.33
2017-12-02T00:47:21.231Z,48.40
2017-12-02T00:49:47.618Z,56.33
2017-12-02T00:52:13.936Z,58.40
2017-12-02T00:54:40.248Z,50.43
2017-12-02T00:57:06.560Z,50.00
2017-12-02T00:59:32.877Z,52.00
2017-12-02T01:01:59.151Z,52.23
2017-12-02T01:04:25.412Z,55.70
2017-12-02T01:06:51.837Z,57.03
2017-12-02T01:09:18.074Z,55.10
2017-12-02T01:11:46.343Z,50.93
2017-12-02T01:14:12.656Z,42.77
2017-12-02T01:16:38.944Z,48.40
2017-12-02T01:19:05.234Z,40.37
2017-12-02T01:21:32.250Z,51.67
2017-12-02T01:23:59.290Z,49.17
2017-12-02T01:26:25.743Z,49.40
2017-12-02T01:28:52.031Z,49.47
2017-12-02T01:31:18.420Z,39.60
2017-12-02T01:33:44.694Z,47.77
2017-12-02T01:36:11.695Z,40.43
2017-12-02T01:38:37.940Z,45.87
2017-12-02T01:41:04.227Z,42.53
2017-12-02T01:43:30.543Z,40.63
2017-12-02T01:45:56.842Z,48.50
2017-12-02T01:48:23.062Z,58.57
2017-12-02T01:50:49.382Z,44.80
2017-12-02T01:53:15.624Z,44.17
2017-12-02T01:55:41.914Z,44.25
2017-12-02T01:58:08.168Z,40.50
2017-12-02T02:00:34.584Z,45.10
2017-12-02T02:03:01.615Z,42.80
2017-12-02T02:05:27.895Z,47.80
2017-12-02T02:07:54.135Z,42.90
2017-12-02T02:10:21.164Z,40.00
2017-12-02T02:12:47.378Z,47.57
2017-12-02T02:15:13.688Z,41.17
2017-12-02T02:17:39.947Z,43.05
2017-12-02T02:20:06.243Z,43.17
2017-12-02T02:22:32.575Z,36.00
2017-12-02T02:24:58.878Z,36.67
2017-12-02T02:27:25.117Z,36.07
2017-12-02T02:29:51.393Z,37.53
2017-12-02T02:32:17.701Z,39.67
2017-12-02T02:34:44.028Z,31.83
2017-12-02T02:37:12.106Z,39.63
2017-12-02T02:39:39.150Z,35.63
2017-12-02T02:42:05.423Z,38.33
2017-12-02T02:44:32.463Z,41.53
2017-12-02T02:46:58.722Z,39.83
2017-12-02T02:49:25.735Z,36.13
2017-12-02T02:51:52.046Z,41.27
2017-12-02T02:54:18.349Z,33.73
2017-12-02T02:56:44.646Z,36.63
2017-12-02T02:59:10.952Z,37.47
2017-12-02T03:01:37.976Z,33.70
2017-12-02T03:04:04.268Z,33.30
2017-12-02T03:06:31.279Z,33.33
2017-12-02T03:08:57.504Z,31.07
2017-12-02T03:11:23.761Z,35.33
2017-12-02T03:13:50.051Z,37.00
2017-12-02T03:16:17.138Z,42.73
2017-12-02T03:18:43.395Z,36.97
2017-12-02T03:21:10.426Z,30.00
2017-12-02T03:23:37.443Z,37.42
2017-12-02T03:26:03.748Z,40.43
2017-12-02T03:28:30.038Z,36.15
2017-12-02T03:30:56.377Z,40.03
2017-12-02T03:33:22.692Z,37.33
2017-12-02T03:35:49.000Z,36.13
2017-12-02T03:38:16.011Z,38.33
2017-12-02T03:40:42.446Z,34.73
2017-12-02T03:43:08.738Z,42.90
2017-12-02T03:45:35.030Z,39.30
2017-12-02T03:48:01.340Z,36.57
2017-12-02T03:50:28.398Z,39.50
2017-12-02T03:52:55.553Z,46.50
2017-12-02T03:55:22.662Z,42.27
2017-12-02T03:57:48.997Z,40.37
2017-12-02T04:00:15.301Z,34.97
2017-12-02T04:02:41.599Z,41.80
2017-12-02T04:05:07.906Z,45.03
2017-12-02T04:07:34.909Z,43.37
2017-12-02T04:10:01.235Z,39.57
2017-12-02T04:12:28.339Z,42.43
2017-12-02T04:14:54.656Z,40.50
2017-12-02T04:17:20.967Z,38.67
2017-12-02T04:19:48.006Z,35.80
2017-12-02T04:22:15.077Z,42.20
2017-12-02T04:24:41.353Z,37.40
2017-12-02T04:27:07.654Z,34.10
2017-12-02T04:29:34.103Z,36.35
2017-12-02T04:32:00.390Z,36.60
2017-12-02T04:34:26.701Z,30.25
2017-12-02T04:36:53.749Z,37.55
2017-12-02T04:39:20.061Z,38.53
2017-12-02T04:41:46.342Z,34.13
2017-12-02T04:44:13.391Z,39.00
2017-12-02T04:46:39.636Z,32.53
2017-12-02T04:49:05.922Z,37.08
2017-12-02T04:51:32.181Z,33.58
2017-12-02T04:53:58.447Z,29.67
2017-12-02T04:56:24.688Z,34.38
2017-12-02T04:58:51.030Z,36.17
2017-12-02T05:01:17.297Z,31.87
2017-12-02T05:03:43.575Z,33.00
2017-12-02T05:06:09.852Z,32.10
2017-12-02T05:08:36.150Z,30.67
2017-12-02T05:11:03.163Z,29.52
2017-12-02T05:13:29.466Z,33.72
2017-12-02T05:15:55.733Z,28.65
2017-12-02T05:18:22.043Z,27.75
2017-12-02T05:20:49.020Z,26.67
2017-12-02T05:23:15.300Z,29.33
2017-12-02T05:25:41.560Z,34.28
2017-12-02T05:28:07.855Z,33.97
2017-12-02T05:30:34.120Z,31.45
2017-12-02T05:33:00.423Z,36.45
2017-12-02T05:35:26.713Z,38.58
2017-12-02T05:37:53.006Z,35.55
2017-12-02T05:40:19.264Z,33.65
2017-12-02T05:42:45.527Z,35.75
2017-12-02T05:45:11.807Z,37.92
2017-12-02T05:47:38.091Z,42.62
2017-12-02T05:50:04.408Z,37.20
2017-12-02T05:52:31.436Z,33.03
2017-12-02T05:54:57.708Z,40.00
2017-12-02T05:57:23.967Z,40.20
2017-12-02T05:59:50.984Z,33.78
2017-12-02T06:02:17.254Z,35.83
2017-12-02T06:04:43.611Z,33.67
2017-12-02T06:07:09.863Z,41.25
2017-12-02T06:09:36.153Z,35.40
2017-12-02T06:12:02.439Z,32.00
2017-12-02T06:14:29.451Z,37.45
2017-12-02T06:16:55.730Z,34.42
2017-12-02T06:19:22.030Z,34.05
2017-12-02T06:21:48.292Z,39.85
2017-12-02T06:24:14.642Z,33.20
2017-12-02T06:26:40.956Z,39.97
2017-12-02T06:29:07.248Z,30.83
2017-12-02T06:31:33.485Z,35.57
2017-12-02T06:33:59.800Z,36.50
2017-12-02T06:36:26.058Z,31.40
2017-12-02T06:38:52.386Z,33.80
2017-12-02T06:41:18.643Z,32.07
2017-12-02T06:43:45.727Z,34.67
2017-12-02T06:46:11.990Z,33.78
2017-12-02T06:48:39.063Z,32.05
2017-12-02T06:51:05.309Z,33.83
2017-12-02T06:53:31.803Z,31.00
2017-12-02T06:55:58.062Z,34.67
2017-12-02T06:58:24.317Z,36.10
2017-12-02T07:00:50.643Z,36.23
2017-12-02T07:03:16.964Z,35.93
2017-12-02T07:08:22.939Z,36.00
2017-12-02T07:10:49.283Z,31.07
2017-12-02T07:13:15.623Z,32.77
2017-12-02T07:15:42.028Z,35.40
2017-12-02T07:18:08.377Z,36.27
2017-12-02T07:20:34.715Z,34.85
2017-12-02T07:23:01.069Z,33.83
2017-12-02T07:25:27.393Z,32.63
2017-12-02T07:27:53.730Z,35.63
2017-12-02T07:30:20.048Z,29.70
2017-12-02T07:32:46.332Z,30.30
2017-12-02T07:35:12.640Z,32.80
2017-12-02T07:37:39.685Z,33.53
2017-12-02T07:40:05.980Z,36.97
2017-12-02T07:42:32.300Z,34.88
2017-12-02T07:44:58.652Z,31.80
2017-12-02T07:47:24.954Z,23.33
2017-12-02T07:49:51.993Z,30.88
2017-12-02T07:52:18.297Z,25.60
2017-12-02T07:54:44.608Z,24.48
2017-12-02T07:57:10.899Z,34.40
2017-12-02T07:59:37.245Z,28.60
2017-12-02T08:02:03.510Z,25.77
2017-12-02T08:04:29.877Z,25.13
2017-12-02T08:06:56.173Z,29.85
2017-12-02T08:09:23.235Z,29.53
2017-12-02T08:11:49.507Z,23.30
2017-12-02T08:14:15.794Z,25.07
2017-12-02T08:16:42.828Z,25.77
2017-12-02T08:19:09.890Z,25.93
2017-12-02T08:21:36.904Z,27.77
2017-12-02T08:24:03.222Z,26.73
2017-12-02T08:26:29.515Z,25.53
2017-12-02T08:28:55.813Z,25.50
2017-12-02T08:31:22.839Z,30.07
2017-12-02T08:33:49.132Z,26.27
2017-12-02T08:36:15.423Z,25.63
2017-12-02T08:38:42.460Z,26.97
2017-12-02T08:41:09.494Z,25.13
2017-12-02T08:43:35.784Z,19.50
2017-12-02T08:46:02.165Z,24.87
2017-12-02T08:48:29.231Z,25.93
2017-12-02T08:50:55.491Z,28.90
2017-12-02T08:53:21.824Z,25.40
2017-12-02T08:55:48.116Z,24.30
2017-12-02T08:58:15.136Z,30.43
2017-12-02T09:00:41.449Z,33.93
2017-12-02T09:03:07.747Z,27.42
2017-12-02T09:05:34.077Z,23.40
2017-12-02T09:08:00.360Z,26.30
2017-12-02T09:10:26.695Z,27.73
2017-12-02T09:12:52.981Z,29.02
2017-12-02T09:15:19.291Z,25.80
2017-12-02T09:17:45.622Z,27.73
2017-12-02T09:20:11.926Z,25.87
2017-12-02T09:22:38.981Z,21.63
2017-12-02T09:25:06.023Z,25.33
2017-12-02T09:27:33.075Z,25.50
2017-12-02T09:30:00.124Z,25.40
2017-12-02T09:32:27.196Z,25.23
2017-12-02T09:34:53.493Z,32.90
2017-12-02T09:37:20.564Z,24.70
2017-12-02T09:39:46.862Z,28.93
2017-12-02T09:42:13.158Z,26.60
2017-12-02T09:44:39.471Z,23.53
2017-12-02T09:47:05.781Z,26.80
2017-12-02T09:49:32.062Z,19.03
2017-12-02T09:51:58.390Z,27.57
2017-12-02T09:54:24.686Z,26.00
2017-12-02T09:56:51.055Z,24.00
2017-12-02T09:59:17.381Z,28.00
2017-12-02T10:01:43.701Z,23.07
2017-12-02T10:04:09.931Z,28.57
2017-12-02T10:06:36.265Z,30.60
2017-12-02T10:09:02.563Z,31.87
2017-12-02T10:11:29.095Z,35.10
2017-12-02T10:13:55.381Z,34.47
2017-12-02T10:16:21.821Z,33.97
2017-12-02T10:18:48.069Z,36.83
2017-12-02T10:21:15.160Z,37.97
2017-12-02T10:23:41.458Z,38.60
2017-12-02T10:26:07.755Z,43.37
2017-12-02T10:28:34.039Z,46.93
2017-12-02T10:31:00.369Z,39.73
2017-12-02T10:33:26.680Z,35.00
2017-12-02T10:35:53.079Z,40.70
2017-12-02T10:38:19.376Z,37.60
2017-12-02T10:40:45.690Z,42.58
2017-12-02T10:43:12.018Z,43.37
2017-12-02T10:45:38.305Z,38.70
2017-12-02T10:48:05.401Z,39.80
2017-12-02T10:50:32.474Z,33.30
2017-12-02T10:52:58.793Z,39.05
2017-12-02T10:55:25.121Z,41.40
2017-12-02T10:57:51.515Z,39.60
2017-12-02T11:00:17.813Z,31.20
2017-12-02T11:02:44.088Z,31.55
2017-12-02T11:05:10.377Z,35.80
2017-12-02T11:07:36.764Z,36.23
2017-12-02T11:10:03.020Z,34.27
2017-12-02T11:12:29.320Z,34.50
2017-12-02T11:14:55.609Z,33.80
2017-12-02T11:17:22.730Z,33.30
2017-12-02T11:19:49.013Z,32.30
2017-12-02T11:22:15.282Z,32.05
2017-12-02T11:24:41.605Z,40.38
2017-12-02T11:27:09.042Z,54.20
2017-12-02T11:29:35.357Z,35.10
2017-12-02T11:32:01.662Z,31.93
2017-12-02T11:34:28.742Z,28.08
2017-12-02T11:36:55.019Z,33.15
2017-12-02T11:39:21.325Z,28.67
2017-12-02T11:41:47.730Z,32.13
2017-12-02T11:44:14.041Z,37.33
2017-12-02T11:46:40.328Z,32.65
2017-12-02T11:49:06.641Z,34.90
2017-12-02T11:51:32.924Z,37.20
2017-12-02T11:53:59.971Z,30.40
2017-12-02T11:56:27.003Z,47.50
2017-12-02T11:58:54.064Z,36.90
2017-12-02T12:01:21.086Z,30.67
2017-12-02T12:03:47.383Z,26.50
2017-12-02T12:06:13.690Z,28.87
2017-12-02T12:08:39.990Z,33.70
2017-12-02T12:11:06.261Z,28.05
2017-12-02T12:13:32.557Z,29.40
2017-12-02T12:15:59.606Z,32.00
2017-12-02T12:18:26.651Z,32.27
2017-12-02T12:20:53.685Z,34.60
2017-12-02T12:23:20.080Z,32.15
2017-12-02T12:25:46.370Z,37.22
2017-12-02T12:28:13.411Z,38.27
2017-12-02T12:30:40.420Z,28.33
2017-12-02T12:33:06.743Z,35.45
2017-12-02T12:35:33.017Z,39.70
2017-12-02T12:38:00.803Z,29.75
2017-12-02T12:40:27.089Z,38.47
2017-12-02T12:42:53.373Z,38.80
2017-12-02T12:45:19.640Z,34.80
2017-12-02T12:47:45.920Z,42.13
2017-12-02T12:50:12.209Z,33.93
2017-12-02T12:52:38.476Z,38.60
2017-12-02T12:55:04.777Z,38.10
2017-12-02T12:57:31.795Z,43.60
2017-12-02T12:59:58.075Z,40.07
2017-12-02T13:02:24.384Z,39.25
2017-12-02T13:04:50.664Z,42.07
2017-12-02T13:07:16.916Z,40.13
2017-12-02T13:09:43.202Z,42.90
2017-12-02T13:12:09.485Z,43.87
2017-12-02T13:14:35.888Z,45.30
2017-12-02T13:17:02.163Z,44.17
2017-12-02T13:19:29.175Z,46.10
2017-12-02T13:21:55.440Z,40.78
2017-12-02T13:24:22.448Z,39.87
2017-12-02T13:26:49.459Z,41.80
2017-12-02T13:29:15.742Z,44.10
2017-12-02T13:31:41.988Z,45.17
2017-12-02T13:34:08.284Z,42.40
2017-12-02T13:36:34.562Z,47.65
2017-12-02T13:39:00.899Z,43.30
2017-12-02T13:41:27.190Z,43.17
2017-12-02T13:43:53.444Z,45.55
2017-12-02T13:46:19.697Z,47.20
2017-12-02T13:48:45.995Z,46.45
2017-12-02T13:51:12.283Z,36.83
2017-12-02T13:53:38.531Z,44.40
2017-12-02T13:56:04.807Z,40.43
2017-12-02T13:58:31.087Z,38.60
2017-12-02T14:00:57.382Z,37.58
2017-12-02T14:03:23.721Z,42.30
2017-12-02T14:05:49.976Z,37.80
2017-12-02T14:08:16.256Z,38.53
2017-12-02T14:10:42.566Z,40.03
2017-12-02T14:13:09.561Z,41.70
2017-12-02T14:15:35.879Z,36.17
2017-12-02T14:18:02.141Z,34.85
2017-12-02T14:20:28.435Z,39.88
2017-12-02T14:22:54.688Z,34.63
2017-12-02T14:25:20.948Z,41.23
2017-12-02T14:27:47.240Z,33.13
2017-12-02T14:30:14.340Z,30.10
2017-12-02T14:32:41.349Z,36.78
2017-12-02T14:35:07.623Z,39.45
2017-12-02T14:37:34.623Z,37.95
2017-12-02T14:40:00.899Z,37.17
2017-12-02T14:42:27.909Z,37.97
2017-12-02T14:44:54.180Z,41.80
2017-12-02T14:47:20.423Z,32.05
2017-12-02T14:49:46.709Z,35.75
2017-12-02T14:52:12.980Z,33.30
2017-12-02T14:54:39.265Z,33.47
2017-12-02T14:57:05.533Z,34.28
2017-12-02T14:59:31.817Z,35.83
2017-12-02T15:01:58.081Z,34.10
2017-12-02T15:04:25.085Z,37.33
2017-12-02T15:06:51.369Z,37.53
2017-12-02T15:09:17.666Z,27.77
2017-12-02T15:11:43.949Z,31.17
2017-12-02T15:14:10.230Z,30.90
2017-12-02T15:16:36.523Z,35.50
2017-12-02T15:19:02.808Z,28.67
2017-12-02T15:21:29.068Z,34.08
2017-12-02T15:23:55.340Z,35.60
2017-12-02T15:26:21.604Z,37.30
2017-12-02T15:28:47.873Z,33.28
2017-12-02T15:31:14.875Z,34.95
2017-12-02T15:33:41.136Z,31.05
2017-12-02T15:36:07.406Z,36.20
2017-12-02T15:38:33.667Z,38.65
2017-12-02T15:40:59.924Z,30.73
2017-12-02T15:43:26.179Z,33.92
2017-12-02T15:45:52.499Z,37.47
2017-12-02T15:48:18.795Z,42.90
2017-12-02T15:50:45.092Z,43.37
2017-12-02T15:53:12.094Z,34.90
2017-12-02T15:55:38.421Z,36.63
2017-12-02T15:58:04.707Z,35.63
2017-12-02T16:00:31.762Z,43.20
2017-12-02T16:02:58.787Z,41.50
2017-12-02T16:05:25.127Z,34.17
2017-12-02T16:07:52.218Z,35.28
2017-12-02T16:10:18.492Z,43.20
2017-12-02T16:12:44.762Z,36.92
2017-12-02T16:15:11.126Z,40.42
2017-12-02T16:17:37.424Z,33.60
2017-12-02T16:20:03.751Z,39.27
2017-12-02T16:22:30.028Z,40.23
2017-12-02T16:24:56.334Z,38.77
2017-12-02T16:27:23.350Z,39.50
2017-12-02T16:29:50.375Z,37.00
2017-12-02T16:32:17.375Z,34.53
2017-12-02T16:34:43.676Z,33.43
2017-12-02T16:37:10.725Z,36.97
2017-12-02T16:39:37.054Z,34.07
2017-12-02T16:42:03.310Z,34.73
2017-12-02T16:44:29.605Z,35.70
2017-12-02T16:46:56.646Z,38.97
2017-12-02T16:49:23.683Z,36.40
2017-12-02T16:51:49.943Z,36.90
2017-12-02T16:54:16.248Z,39.13
2017-12-02T16:56:43.345Z,36.90
2017-12-02T16:59:09.715Z,37.97
2017-12-02T17:01:35.983Z,36.27
2017-12-02T17:04:02.331Z,36.47
2017-12-02T17:06:28.641Z,33.03
2017-12-02T17:08:54.949Z,38.30
2017-12-02T17:11:21.981Z,38.10
2017-12-02T17:13:48.270Z,68.33
2017-12-02T17:16:14.562Z,86.17
2017-12-02T17:18:41.648Z,59.60
2017-12-02T17:21:07.982Z,41.67
2017-12-02T17:23:34.276Z,43.57
2017-12-02T17:26:00.584Z,42.97
2017-12-02T17:28:26.884Z,39.77
2017-12-02T17:30:53.924Z,47.47
2017-12-02T17:33:20.209Z,41.50
2017-12-02T17:35:47.237Z,33.97
2017-12-02T17:38:13.530Z,36.63
2017-12-02T17:40:39.809Z,42.30
2017-12-02T17:43:06.135Z,38.47
2017-12-02T17:45:33.211Z,37.13
2017-12-02T17:47:59.502Z,42.20
2017-12-02T17:50:25.803Z,37.65
2017-12-02T17:52:52.089Z,36.83
2017-12-02T17:55:18.369Z,38.50
2017-12-02T17:57:44.631Z,38.33
2017-12-02T18:00:10.920Z,39.90
2017-12-02T18:02:37.176Z,44.83
2017-12-02T18:05:03.465Z,41.87
2017-12-02T18:07:29.763Z,37.73
2017-12-02T18:09:56.760Z,35.63
2017-12-02T18:12:23.028Z,37.87
2017-12-02T18:14:50.071Z,40.00
2017-12-02T18:17:17.103Z,35.13
2017-12-02T18:19:43.408Z,32.77
2017-12-02T18:22:09.647Z,37.35
2017-12-02T18:24:35.903Z,32.07
2017-12-02T18:27:02.965Z,35.13
2017-12-02T18:29:29.990Z,39.37
2017-12-02T18:31:56.261Z,36.60
2017-12-02T18:34:22.500Z,31.90
2017-12-02T18:36:48.766Z,31.80
2017-12-02T18:39:15.028Z,28.07
2017-12-02T18:41:42.063Z,29.47
2017-12-02T18:44:09.047Z,28.20
2017-12-02T18:46:35.319Z,31.23
2017-12-02T18:49:01.588Z,27.60
2017-12-02T18:51:27.812Z,25.88
2017-12-02T18:53:54.114Z,29.58
2017-12-02T18:56:20.405Z,30.45
2017-12-02T18:58:46.692Z,27.15
2017-12-02T19:01:13.745Z,30.12
2017-12-02T19:03:40.029Z,32.65
2017-12-02T19:06:06.268Z,28.37
2017-12-02T19:08:32.519Z,30.83
2017-12-02T19:10:59.516Z,28.23
2017-12-02T19:13:25.796Z,31.27
2017-12-02T19:15:52.859Z,30.57
2017-12-02T19:18:19.125Z,30.80
2017-12-02T19:20:45.388Z,29.70
2017-12-02T19:23:11.676Z,28.77
2017-12-02T19:25:37.934Z,30.67
2017-12-02T19:28:04.936Z,26.43
2017-12-02T19:30:31.166Z,29.30
2017-12-02T19:32:57.450Z,18.55
2017-12-02T19:35:23.699Z,28.10
2017-12-02T19:37:50.724Z,33.97
2017-12-02T19:40:16.991Z,33.85
2017-12-02T19:42:43.265Z,37.38
2017-12-02T19:45:09.571Z,27.77
2017-12-02T19:47:35.853Z,29.47
2017-12-02T19:50:02.874Z,30.33
2017-12-02T19:52:29.152Z,29.37
2017-12-02T19:54:55.437Z,34.88
2017-12-02T19:57:21.781Z,30.83
2017-12-02T19:59:48.108Z,31.58
2017-12-02T20:02:14.422Z,31.85
2017-12-02T20:04:40.709Z,31.83
2017-12-02T20:07:07.024Z,36.63
2017-12-02T20:09:34.032Z,31.43
2017-12-02T20:12:00.333Z,33.50
2017-12-02T20:14:26.678Z,35.92
2017-12-02T20:16:53.009Z,37.63
2017-12-02T20:19:19.308Z,32.93
2017-12-02T20:21:45.633Z,30.70
2017-12-02T20:24:11.909Z,34.00
2017-12-02T20:26:38.248Z,44.80
2017-12-02T20:29:04.534Z,35.20
2017-12-02T20:31:30.788Z,31.17
2017-12-02T20:33:57.044Z,34.92
2017-12-02T20:36:23.331Z,37.72
2017-12-02T20:38:50.354Z,32.72
2017-12-02T20:41:16.619Z,35.85
2017-12-02T20:43:42.898Z,39.55
2017-12-02T20:46:09.886Z,39.03
2017-12-02T20:48:36.147Z,43.80
2017-12-02T20:51:02.407Z,38.30
2017-12-02T20:53:29.419Z,42.08
2017-12-02T20:55:55.664Z,50.60
2017-12-02T20:58:21.976Z,48.75
2017-12-02T21:00:48.276Z,43.70
2017-12-02T21:03:14.550Z,42.13
2017-12-02T21:05:40.787Z,41.03
2017-12-02T21:08:07.795Z,38.90
2017-12-02T21:10:34.065Z,43.03
2017-12-02T21:13:01.094Z,40.92
2017-12-02T21:15:27.401Z,52.45
2017-12-02T21:17:53.655Z,40.40
2017-12-02T21:20:19.908Z,41.53
2017-12-02T21:22:46.931Z,42.30
2017-12-02T21:25:13.195Z,49.92
2017-12-02T21:27:39.471Z,47.15
2017-12-02T21:30:05.731Z,39.88
2017-12-02T21:32:32.789Z,48.33
2017-12-02T21:34:59.814Z,43.25
2017-12-02T21:37:26.072Z,48.80
2017-12-02T21:39:52.368Z,62.92
2017-12-02T21:42:18.656Z,51.85
2017-12-02T21:44:44.962Z,43.53
2017-12-02T21:47:11.243Z,38.78
2017-12-02T21:49:38.503Z,40.67
2017-12-02T21:52:04.775Z,43.00
2017-12-02T21:54:31.075Z,40.50
2017-12-02T21:56:57.351Z,48.60
2017-12-02T21:59:23.627Z,42.42
2017-12-02T22:01:49.912Z,43.75
2017-12-02T22:04:16.185Z,38.20
2017-12-02T22:06:42.478Z,42.25
2017-12-02T22:09:08.743Z,40.12
2017-12-02T22:11:34.999Z,42.15
2017-12-02T22:14:01.310Z,54.28
2017-12-02T22:16:27.598Z,56.58
2017-12-02T22:18:53.912Z,45.22
2017-12-02T22:21:20.175Z,50.12
2017-12-02T22:23:46.494Z,46.10
2017-12-02T22:26:12.828Z,47.00
2017-12-02T22:28:39.121Z,53.42
2017-12-02T22:31:05.391Z,56.13
2017-12-02T22:33:32.662Z,53.22
2017-12-02T22:35:58.947Z,53.67
2017-12-02T22:38:25.259Z,52.05
2017-12-02T22:40:52.269Z,41.00
2017-12-02T22:43:19.585Z,52.05
2017-12-02T22:45:45.904Z,45.33
2017-12-02T22:48:12.175Z,41.40
2017-12-02T22:50:38.459Z,51.58
2017-12-02T22:53:04.756Z,52.47
2017-12-02T22:55:31.045Z,42.97
2017-12-02T22:57:58.009Z,41.95
2017-12-02T23:00:25.046Z,49.63
2017-12-02T23:02:52.070Z,51.53
2017-12-02T23:05:18.341Z,50.42
2017-12-02T23:07:45.384Z,52.40
2017-12-02T23:10:11.687Z,69.40
2017-12-02T23:12:37.967Z,48.50
2017-12-02T23:15:04.259Z,47.53
2017-12-02T23:17:30.556Z,62.85
2017-12-02T23:19:56.825Z,45.12
2017-12-02T23:22:23.139Z,54.55
2017-12-02T23:24:49.411Z,51.92
2017-12-02T23:27:15.695Z,43.58
2017-12-02T23:29:42.133Z,49.72
2017-12-02T23:32:08.420Z,47.33
2017-12-02T23:34:35.448Z,51.60
2017-12-02T23:37:01.697Z,48.08
2017-12-02T23:39:27.993Z,51.85
2017-12-02T23:41:54.281Z,46.05
2017-12-02T23:44:20.541Z,51.97
2017-12-02T23:46:46.831Z,59.88
2017-12-02T23:49:13.093Z,48.50
2017-12-02T23:51:40.092Z,45.12
2017-12-02T23:54:07.347Z,51.97
2017-12-02T23:56:33.632Z,51.97
2017-12-02T23:58:59.936Z,48.30
